Time;durP1;ratioP1;P1;durP2;ratioP2;P2;SDS_P1;SDS_P2;PMS_P1;PMS_P2;Temp;Humidity;BMP_temperature;BMP_pressure;BME280_temperature;BME280_humidity;BME280_pressure;Samples;Min_cycle;Max_cycle;Signal;HPM_P1;HPM_P2
2023/09/10 05:21:15;;;;;;;252.73;242.40;;;;;;;24.61;78.92;98794.50;4900924;28;103202;-74
2023/09/10 05:23:41;;;;;;;280.02;268.77;;;;;;;25.05;76.96;98799.56;4900531;28;103105;-76
2023/09/10 05:26:09;;;;;;;268.00;257.05;;;;;;;25.30;75.19;98803.41;4914928;28;102906;-75
2023/09/10 05:28:37;;;;;;;190.65;182.75;;;;;;;25.10;75.36;98803.34;4927190;28;103368;-75
2023/09/10 05:31:07;;;;;;;159.32;152.43;;;;;;;25.26;73.65;98802.19;4915712;28;103877;-78
2023/09/10 05:33:37;;;;;;;239.38;229.50;;;;;;;24.63;78.87;98795.97;4902843;28;102782;-78
2023/09/10 05:36:08;;;;;;;266.50;255.68;;;;;;;24.96;79.05;98800.75;4895508;28;102748;-78
2023/09/10 05:38:37;;;;;;;239.95;230.23;;;;;;;25.49;75.55;98797.28;4898253;28;103191;-78
2023/09/10 05:41:07;;;;;;;158.27;151.90;;;;;;;25.86;71.90;98798.63;4884190;28;103239;-79
2023/09/10 05:43:35;;;;;;;277.42;266.73;;;;;;;25.74;69.74;98795.69;4887998;28;102615;-79
2023/09/10 05:46:04;;;;;;;289.15;277.63;;;;;;;25.89;70.15;98799.06;4909094;28;104063;-78
2023/09/10 05:48:34;;;;;;;250.32;240.52;;;;;;;25.65;71.06;98802.34;4889948;28;104195;-80
2023/09/10 05:51:03;;;;;;;256.92;246.45;;;;;;;25.60;71.69;98799.38;4916549;28;105688;-79
2023/09/10 05:53:31;;;;;;;197.90;189.55;;;;;;;24.72;77.82;98793.94;4886866;28;102812;-80
2023/09/10 05:56:03;;;;;;;212.23;203.10;;;;;;;25.06;78.95;98807.50;4913973;28;103975;-79
2023/09/10 05:58:32;;;;;;;309.02;296.05;;;;;;;25.27;78.95;98799.25;4897178;28;105433;-79
2023/09/10 06:01:02;;;;;;;342.25;327.75;;;;;;;25.21;79.06;98810.88;4913232;28;103922;-82
2023/09/10 06:03:33;;;;;;;361.80;345.50;;;;;;;24.96;80.49;98808.88;4893660;28;103576;-82
2023/09/10 06:06:02;;;;;;;362.77;346.52;;;;;;;25.54;78.56;98807.50;4916297;28;103326;-83
2023/09/10 06:08:32;;;;;;;365.88;349.35;;;;;;;26.19;75.44;98823.06;4932393;28;104140;-84
2023/09/10 06:11:02;;;;;;;278.70;266.52;;;;;;;26.56;71.67;98811.59;4960014;28;102629;-82
2023/09/10 06:13:31;;;;;;;214.23;206.00;;;;;;;26.79;69.18;98809.31;4902488;28;102621;-84
2023/09/10 06:16:02;;;;;;;216.55;207.93;;;;;;;26.95;67.68;98806.13;4900466;28;103115;-84
2023/09/10 06:18:31;;;;;;;168.07;160.82;;;;;;;27.19;66.34;98807.31;4894509;28;103886;-83
2023/09/10 06:20:59;;;;;;;133.43;127.18;;;;;;;27.39;65.21;98809.94;4918355;28;103579;-84
2023/09/10 06:23:27;;;;;;;111.60;106.18;;;;;;;27.51;64.79;98816.38;4917687;28;103259;-81
2023/09/10 06:25:55;;;;;;;151.32;144.20;;;;;;;26.94;68.60;98814.50;4921312;28;103464;-80
2023/09/10 06:28:25;;;;;;;194.70;185.98;;;;;;;26.51;72.86;98811.38;4956179;28;102693;-75
2023/09/10 06:30:54;;;;;;;208.07;199.18;;;;;;;25.61;77.29;98819.16;4930688;28;102911;-76
2023/09/10 06:33:22;;;;;;;175.80;167.52;;;;;;;25.71;78.12;98817.72;4936578;28;102885;-78
2023/09/10 06:35:50;;;;;;;178.50;171.27;;;;;;;26.54;75.59;98816.41;4902968;28;102818;-77
2023/09/10 06:38:18;;;;;;;237.90;228.30;;;;;;;26.63;73.50;98817.84;4919412;28;104348;-77
2023/09/10 06:40:48;;;;;;;236.27;226.57;;;;;;;26.42;74.84;98820.75;4911599;28;104820;-76
2023/09/10 06:43:16;;;;;;;352.70;337.83;;;;;;;27.14;71.18;98817.97;4926337;28;102719;-76
2023/09/10 06:46:07;;;;;;;267.73;256.23;;;;;;;27.75;68.78;98818.34;4927068;28;103210;-76
2023/09/10 06:48:35;;;;;;;261.38;250.07;;;;;;;27.99;67.44;98823.00;4899137;28;103280;-78
2023/09/10 06:51:03;;;;;;;207.93;198.85;;;;;;;27.47;69.27;98821.44;4893217;28;103174;-75
2023/09/10 06:53:31;;;;;;;173.75;165.82;;;;;;;27.49;69.92;98821.19;4910004;28;102601;-74
2023/09/10 06:55:59;;;;;;;167.48;160.10;;;;;;;26.95;72.09;98819.69;4894224;28;102649;-77
2023/09/10 06:58:27;;;;;;;166.55;159.45;;;;;;;28.06;68.89;98821.13;4883524;28;103234;-76
2023/09/10 07:00:57;;;;;;;135.27;129.00;;;;;;;28.34;66.12;98822.56;4884464;28;103181;-76
2023/09/10 07:03:26;;;;;;;125.95;120.05;;;;;;;28.36;66.96;98831.31;4884118;28;102886;-76
2023/09/10 07:05:54;;;;;;;108.20;102.97;;;;;;;28.83;65.11;98832.63;4899697;28;102945;-76
2023/09/10 07:08:22;;;;;;;88.93;84.45;;;;;;;29.09;63.68;98835.91;4900954;28;102970;-76
2023/09/10 07:10:50;;;;;;;83.43;79.30;;;;;;;29.15;64.49;98837.72;4893464;28;103155;-76
2023/09/10 07:13:18;;;;;;;80.88;76.82;;;;;;;28.69;66.30;98838.19;4895489;28;102486;-76
2023/09/10 07:15:46;;;;;;;74.78;70.93;;;;;;;29.14;64.10;98837.94;4885474;28;102611;-76
2023/09/10 07:18:14;;;;;;;67.50;63.60;;;;;;;29.10;63.16;98839.44;4898927;28;103878;-76
2023/09/10 07:20:43;;;;;;;77.32;73.63;;;;;;;29.52;61.49;98829.56;4891436;28;103116;-73
2023/09/10 07:23:11;;;;;;;68.55;64.80;;;;;;;29.45;63.09;98839.69;4897105;28;102741;-76
2023/09/10 07:25:39;;;;;;;83.60;79.28;;;;;;;30.10;60.31;98841.56;4915244;28;103025;-75
2023/09/10 07:28:07;;;;;;;95.70;91.28;;;;;;;30.63;58.42;98838.00;4885595;28;103324;-75
2023/09/10 07:30:37;;;;;;;101.78;97.05;;;;;;;30.90;57.48;98834.59;4913588;28;103178;-76
2023/09/10 07:33:05;;;;;;;92.55;88.38;;;;;;;31.08;56.29;98839.09;4884971;28;103140;-75
2023/09/10 07:35:33;;;;;;;88.32;84.32;;;;;;;30.52;58.62;98849.72;4898509;28;102718;-75
2023/09/10 07:38:02;;;;;;;81.45;77.70;;;;;;;31.27;55.74;98837.88;4883216;28;103241;-75
2023/09/10 07:40:30;;;;;;;62.50;59.30;;;;;;;31.75;54.82;98839.47;4884568;28;103801;-75
2023/09/10 07:42:59;;;;;;;57.47;54.67;;;;;;;32.24;53.29;98838.75;4917137;28;102983;-75
2023/09/10 07:45:27;;;;;;;56.42;53.45;;;;;;;29.56;60.29;98855.28;4910801;28;103066;-76
2023/09/10 07:47:56;;;;;;;54.88;52.10;;;;;;;31.12;56.48;98834.00;4896228;28;104019;-75
2023/09/10 07:50:25;;;;;;;47.78;45.10;;;;;;;31.52;54.81;98837.63;4892260;28;103154;-75
2023/09/10 07:52:53;;;;;;;48.17;45.88;;;;;;;32.42;54.08;98841.25;4913239;28;102471;-76
2023/09/10 07:55:25;;;;;;;60.00;56.72;;;;;;;33.21;50.01;98837.34;4888564;28;104040;-75
2023/09/10 07:57:53;;;;;;;79.68;75.90;;;;;;;33.81;48.72;98845.50;4883607;28;103964;-75
2023/09/10 08:00:21;;;;;;;97.82;93.47;;;;;;;34.92;45.64;98848.50;4886842;28;103331;-76
2023/09/10 08:02:49;;;;;;;123.07;117.60;;;;;;;34.02;47.23;98848.47;4890303;28;102797;-75
2023/09/10 08:05:17;;;;;;;103.28;98.97;;;;;;;34.56;45.80;98849.28;4898704;28;102648;-75
2023/09/10 08:07:46;;;;;;;105.15;100.50;;;;;;;33.59;47.46;98844.72;4881326;28;103931;-76
2023/09/10 08:10:14;;;;;;;130.05;124.70;;;;;;;35.16;45.66;98846.19;4897352;28;103218;-73
2023/09/10 08:12:43;;;;;;;121.43;115.95;;;;;;;34.57;47.30;98851.81;4889737;28;102876;-73
2023/09/10 08:15:11;;;;;;;158.25;151.95;;;;;;;35.95;43.74;98847.66;4925827;28;104052;-73
2023/09/10 08:17:41;;;;;;;175.32;168.15;;;;;;;36.39;41.85;98849.94;4914811;28;103188;-73
2023/09/10 08:20:10;;;;;;;145.20;139.10;;;;;;;35.43;43.83;98855.13;4919272;28;103180;-73
2023/09/10 08:22:37;;;;;;;166.50;159.40;;;;;;;35.80;42.98;98847.63;4908835;28;102518;-73
2023/09/10 08:25:08;;;;;;;160.63;153.98;;;;;;;36.77;41.26;98845.88;4889289;28;102762;-76
2023/09/10 08:27:36;;;;;;;199.20;190.65;;;;;;;37.16;40.51;98839.50;4888273;28;103241;-76
2023/09/10 08:30:07;;;;;;;209.50;200.80;;;;;;;37.12;40.12;98852.16;4907156;28;103238;-76
2023/09/10 08:32:36;;;;;;;239.48;229.73;;;;;;;37.69;40.19;98843.47;4886954;28;102617;-75
2023/09/10 08:35:05;;;;;;;308.00;294.83;;;;;;;37.77;38.25;98844.78;4905300;28;103756;-75
2023/09/10 08:37:35;;;;;;;289.25;276.95;;;;;;;37.80;39.03;98844.22;4900869;28;103285;-74
2023/09/10 08:40:04;;;;;;;307.45;294.30;;;;;;;38.09;38.29;98841.59;4901850;28;103219;-73
2023/09/10 08:42:39;;;;;;;255.10;244.18;;;;;;;37.35;39.62;98841.63;4880459;28;103270;-74
2023/09/10 08:45:11;;;;;;;305.55;292.27;;;;;;;38.47;38.62;98843.56;4886028;28;103166;-75
2023/09/10 08:47:40;;;;;;;334.67;319.98;;;;;;;38.09;37.82;98847.13;4886966;28;103928;-75
2023/09/10 08:50:10;;;;;;;325.95;311.17;;;;;;;37.81;39.34;98845.88;4891022;28;103451;-75
2023/09/10 08:52:39;;;;;;;356.58;339.55;;;;;;;38.72;37.84;98840.56;4891064;28;104011;-76
2023/09/10 08:55:09;;;;;;;329.13;313.98;;;;;;;38.08;39.54;98845.47;4894276;28;103743;-74
2023/09/10 08:57:38;;;;;;;257.92;246.48;;;;;;;35.69;42.28;98845.94;4884982;28;104295;-74
2023/09/10 09:00:12;;;;;;;247.25;236.13;;;;;;;35.15;42.85;98839.03;4885429;28;103257;-74
2023/09/10 09:02:40;;;;;;;257.63;245.77;;;;;;;35.82;40.98;98839.91;4887116;28;103554;-74
2023/09/10 09:05:09;;;;;;;263.00;251.05;;;;;;;35.40;42.35;98844.66;4882580;28;102864;-74
2023/09/10 09:07:45;;;;;;;362.98;346.38;;;;;;;37.54;38.58;98839.94;4890803;28;103836;-73
2023/09/10 09:10:18;;;;;;;374.45;356.80;;;;;;;37.94;39.37;98838.94;4906261;28;103498;-73
2023/09/10 09:12:49;;;;;;;467.33;443.20;;;;;;;38.68;37.33;98836.72;4912884;28;103068;-74
2023/09/10 09:15:21;;;;;;;446.10;423.55;;;;;;;38.79;37.60;98840.28;4888449;28;103805;-73
2023/09/10 09:17:52;;;;;;;392.95;374.02;;;;;;;37.63;39.43;98835.47;4906874;28;104149;-74
2023/09/10 09:20:24;;;;;;;422.42;399.85;;;;;;;38.57;37.39;98837.16;4899864;28;103323;-73
2023/09/10 09:22:58;;;;;;;443.88;421.05;;;;;;;38.33;38.04;98834.28;4913092;28;102929;-73
2023/09/10 09:25:26;;;;;;;385.85;367.63;;;;;;;36.07;41.37;98835.63;4902213;28;104013;-74
2023/09/10 09:27:56;;;;;;;270.38;258.02;;;;;;;33.79;44.76;98834.00;4890401;28;104341;-75
2023/09/10 09:30:26;;;;;;;253.93;242.35;;;;;;;34.45;44.44;98842.03;4889503;28;103300;-76
2023/09/10 09:32:57;;;;;;;288.10;274.98;;;;;;;35.25;43.11;98831.72;4900220;28;102566;-75
2023/09/10 09:35:26;;;;;;;308.67;294.27;;;;;;;35.36;43.19;98824.34;4896092;28;103720;-75
2023/09/10 09:37:54;;;;;;;315.55;301.20;;;;;;;36.52;41.90;98824.69;4888201;28;103238;-76
2023/09/10 09:40:23;;;;;;;430.08;408.45;;;;;;;36.38;40.85;98821.63;4884484;28;102921;-75
2023/09/10 09:43:07;;;;;;;508.05;481.85;;;;;;;38.30;38.61;98816.34;4884378;28;103010;-77
2023/09/10 09:46:05;;;;;;;440.38;418.95;;;;;;;36.86;41.10;98817.47;4891594;28;104546;-79
2023/09/10 09:49:15;;;;;;;480.05;455.70;;;;;;;37.62;39.96;98809.84;4882296;28;102825;-79
2023/09/10 09:51:59;;;;;;;492.30;465.88;;;;;;;38.43;37.81;98811.31;4885325;28;102935;-80
2023/09/10 09:54:28;;;;;;;502.60;474.60;;;;;;;38.52;37.50;98812.31;4888769;28;102663;-79
2023/09/10 09:57:11;;;;;;;543.05;512.75;;;;;;;39.38;36.68;98799.34;4896750;28;102704;-81
2023/09/10 09:59:42;;;;;;;528.03;497.98;;;;;;;39.34;36.18;98808.50;4895431;28;103496;-79
2023/09/10 10:02:15;;;;;;;504.10;475.63;;;;;;;37.90;37.53;98808.34;4892704;28;103184;-77
2023/09/10 10:04:44;;;;;;;516.35;487.88;;;;;;;39.03;36.84;98801.63;4891567;28;102969;-78
2023/09/10 10:07:13;;;;;;;512.50;482.52;;;;;;;38.49;37.06;98796.34;4892402;28;103813;-81
2023/09/10 10:09:48;;;;;;;471.65;444.75;;;;;;;38.82;36.89;98792.78;4925090;28;103515;-81
2023/09/10 10:12:17;;;;;;;521.17;491.52;;;;;;;39.24;37.60;98792.88;4932067;28;103182;-77
2023/09/10 10:14:49;;;;;;;421.80;399.45;;;;;;;37.46;38.19;98790.94;4892189;28;102934;-78
2023/09/10 10:17:23;;;;;;;343.10;325.75;;;;;;;35.09;42.16;98787.97;4909166;28;102850;-80
2023/09/10 10:19:53;;;;;;;386.27;367.00;;;;;;;36.21;40.55;98784.50;4903723;28;103519;-77
2023/09/10 10:22:23;;;;;;;316.15;300.65;;;;;;;35.27;41.42;98784.75;4894200;28;103390;-78
2023/09/10 10:24:51;;;;;;;367.85;349.25;;;;;;;36.56;40.26;98784.50;4897640;28;102650;-79
2023/09/10 10:27:22;;;;;;;376.52;357.88;;;;;;;35.88;40.67;98778.38;4928545;28;102499;-80
2023/09/10 10:29:52;;;;;;;255.35;243.25;;;;;;;34.73;44.53;98782.22;4896680;28;102489;-80
2023/09/10 10:32:27;;;;;;;397.83;377.70;;;;;;;37.63;39.52;98772.09;4909953;28;103262;-79
2023/09/10 10:34:58;;;;;;;351.33;333.42;;;;;;;34.41;42.36;98784.19;4894911;28;102515;-80
2023/09/10 10:37:36;;;;;;;321.58;306.02;;;;;;;35.01;42.67;98770.03;4894659;28;103879;-80
2023/09/10 10:40:09;;;;;;;334.13;317.75;;;;;;;35.16;42.54;98766.59;4927064;28;102492;-78
2023/09/10 10:42:46;;;;;;;381.25;361.95;;;;;;;36.72;40.26;98766.88;4890760;28;103162;-76
2023/09/10 10:45:17;;;;;;;421.27;398.98;;;;;;;38.24;38.81;98770.59;4894443;28;103186;-80
2023/09/10 10:47:48;;;;;;;355.38;337.50;;;;;;;35.93;40.75;98764.63;4900170;28;102623;-82
2023/09/10 10:50:25;;;;;;;439.92;416.70;;;;;;;38.25;36.92;98758.47;4894495;28;104271;-81
2023/09/10 10:52:59;;;;;;;410.95;388.90;;;;;;;37.60;37.69;98767.16;4940002;28;104307;-79
2023/09/10 10:55:27;;;;;;;401.73;380.73;;;;;;;37.17;38.85;98758.50;4908851;28;102945;-80
2023/09/10 10:57:56;;;;;;;428.52;405.88;;;;;;;37.94;37.80;98757.06;4897563;28;103313;-78
2023/09/10 11:00:25;;;;;;;451.08;427.50;;;;;;;37.13;37.30;98746.44;4911146;28;103070;-78
2023/09/10 11:06:08;;;;;;;537.05;505.58;;;;;;;39.83;34.46;98739.03;5110329;27;102610;-75
2023/09/10 11:08:46;;;;;;;423.77;401.13;;;;;;;37.94;37.22;98742.44;5088054;27;103797;-74
2023/09/10 11:11:50;;;;;;;432.45;408.00;;;;;;;38.11;36.07;98746.44;5087891;27;103376;-73
2023/09/10 11:15:10;;;;;;;416.90;394.45;;;;;;;37.50;37.16;98756.19;5080571;27;103004;-73
2023/09/10 11:17:54;;;;;;;419.48;398.35;;;;;;;36.01;38.56;98750.38;5087072;27;102813;-73
2023/09/10 11:20:52;;;;;;;401.45;381.83;;;;;;;36.55;37.72;98745.16;5077695;27;102899;-72
2023/09/10 11:23:23;;;;;;;383.10;363.85;;;;;;;38.24;36.28;98737.50;5082306;27;103703;-76
2023/09/10 11:25:53;;;;;;;397.27;376.85;;;;;;;37.01;36.00;98736.81;5089536;27;103371;-74
2023/09/10 11:28:57;;;;;;;405.10;384.70;;;;;;;38.02;35.95;98737.13;5090068;27;102763;-74
2023/09/10 11:34:47;;;;;;;443.88;418.90;;;;;;;38.09;34.57;98745.09;5089757;27;103335;-75
2023/09/10 11:37:25;;;;;;;355.48;337.10;;;;;;;35.75;38.61;98740.44;5084278;27;104606;-79
2023/09/10 11:40:00;;;;;;;327.73;310.33;;;;;;;36.58;37.32;98733.59;5091538;27;102719;-80
2023/09/10 11:42:37;;;;;;;352.15;331.58;;;;;;;36.88;35.26;98729.97;5084334;27;102813;-72
2023/09/10 11:45:09;;;;;;;336.08;317.48;;;;;;;37.59;35.96;98722.25;5086534;27;103358;-73
2023/09/10 11:47:45;;;;;;;323.40;305.27;;;;;;;36.35;36.08;98728.66;5089938;27;103802;-73
2023/09/10 11:50:19;;;;;;;226.82;215.10;;;;;;;35.50;37.37;98726.63;5080882;27;102775;-74
2023/09/10 11:52:49;;;;;;;249.40;236.55;;;;;;;36.06;37.66;98719.34;5090411;27;102661;-74
2023/09/10 11:55:19;;;;;;;316.30;299.48;;;;;;;37.48;35.24;98719.81;5092978;27;104476;-74
2023/09/10 11:57:47;;;;;;;336.98;318.17;;;;;;;37.88;34.23;98724.28;5086195;27;103508;-74
2023/09/10 12:00:16;;;;;;;401.83;377.90;;;;;;;39.54;32.21;98713.44;5088503;27;103052;-74
2023/09/10 12:02:44;;;;;;;342.67;324.40;;;;;;;37.11;34.80;98721.09;5076416;27;102836;-74
2023/09/10 12:05:12;;;;;;;268.83;255.75;;;;;;;35.35;36.62;98707.34;5080082;27;103383;-73
2023/09/10 12:07:44;;;;;;;272.52;258.63;;;;;;;34.97;36.24;98708.56;5088281;27;103247;-72
2023/09/10 12:10:13;;;;;;;274.63;260.75;;;;;;;36.34;35.69;98712.44;5087135;27;102993;-74
2023/09/10 12:12:46;;;;;;;338.42;319.85;;;;;;;38.48;33.20;98703.66;5092792;27;102628;-74
2023/09/10 12:15:15;;;;;;;322.55;306.00;;;;;;;37.42;35.06;98704.44;5080341;27;103689;-74
2023/09/10 12:17:43;;;;;;;344.77;326.35;;;;;;;37.71;33.67;98699.84;5072472;27;103283;-74
2023/09/10 12:20:13;;;;;;;328.58;310.50;;;;;;;36.73;33.91;98705.22;5080501;27;102638;-74
2023/09/10 12:22:41;;;;;;;301.02;285.73;;;;;;;36.08;35.20;98706.13;5070385;27;103727;-74
2023/09/10 12:25:09;;;;;;;349.02;329.67;;;;;;;38.66;32.71;98700.13;5076340;27;103345;-74
2023/09/10 12:27:37;;;;;;;352.73;331.98;;;;;;;37.04;33.55;98711.47;5076581;27;103610;-74
2023/09/10 12:30:08;;;;;;;289.80;273.67;;;;;;;36.13;34.48;98697.06;5072242;27;102603;-74
2023/09/10 12:32:36;;;;;;;288.10;272.80;;;;;;;37.50;33.32;98695.59;5072255;27;102674;-73
2023/09/10 12:35:08;;;;;;;348.40;328.20;;;;;;;38.14;31.85;98696.22;5072306;27;103556;-73
2023/09/10 12:37:35;;;;;;;340.30;320.42;;;;;;;38.02;32.44;98693.00;5068890;27;103288;-74
2023/09/10 12:40:05;;;;;;;302.02;285.15;;;;;;;36.91;34.32;98688.13;5067257;27;103060;-74
2023/09/10 12:42:33;;;;;;;324.10;305.52;;;;;;;37.99;32.99;98690.84;5072657;27;102926;-74
2023/09/10 12:45:02;;;;;;;370.52;347.95;;;;;;;39.40;31.53;98688.50;5078992;27;102722;-74
2023/09/10 12:47:31;;;;;;;312.15;294.42;;;;;;;36.23;33.48;98689.63;5072622;27;103355;-74
2023/09/10 12:50:00;;;;;;;343.63;323.67;;;;;;;38.80;32.23;98681.78;5069445;27;102815;-74
2023/09/10 12:52:28;;;;;;;327.05;308.33;;;;;;;38.18;31.03;98686.25;5081053;27;102742;-75
2023/09/10 12:54:55;;;;;;;321.75;303.42;;;;;;;38.44;31.81;98683.28;5074606;27;103351;-73
2023/09/10 12:57:23;;;;;;;347.48;327.27;;;;;;;39.80;31.13;98678.81;5074554;27;103243;-74
2023/09/10 12:59:53;;;;;;;341.05;321.90;;;;;;;38.84;30.93;98678.16;5077898;27;103013;-74
2023/09/10 13:02:22;;;;;;;267.20;252.18;;;;;;;35.93;34.68;98675.88;5072339;27;103860;-74
2023/09/10 13:04:54;;;;;;;310.98;293.67;;;;;;;38.19;32.50;98671.34;5070697;27;103311;-74
2023/09/10 13:07:24;;;;;;;284.60;268.92;;;;;;;38.01;32.78;98674.81;5066424;27;104303;-74
2023/09/10 13:09:53;;;;;;;279.02;263.58;;;;;;;37.63;33.34;98661.88;5072640;27;102656;-74
2023/09/10 13:12:21;;;;;;;330.73;311.98;;;;;;;39.52;31.78;98652.13;5074056;27;102730;-74
2023/09/10 13:14:49;;;;;;;334.70;314.88;;;;;;;38.59;31.82;98650.00;5063573;27;104406;-74
2023/09/10 13:17:18;;;;;;;348.15;327.85;;;;;;;39.23;30.78;98647.56;5064381;27;104331;-71
2023/09/10 13:19:46;;;;;;;300.63;283.58;;;;;;;36.79;34.16;98667.50;5076733;27;102725;-73
2023/09/10 13:22:16;;;;;;;278.38;261.73;;;;;;;36.32;33.51;98654.16;5072529;27;102634;-73
2023/09/10 13:24:43;;;;;;;281.15;265.42;;;;;;;37.36;33.37;98661.50;5076880;27;103740;-72
2023/09/10 13:27:12;;;;;;;320.75;302.67;;;;;;;39.87;31.40;98643.28;5067776;27;103389;-73
2023/09/10 13:29:40;;;;;;;352.15;332.10;;;;;;;39.79;31.02;98638.44;5076044;27;103066;-73
2023/09/10 13:32:08;;;;;;;288.38;271.58;;;;;;;37.35;33.44;98655.16;5071241;27;102802;-73
2023/09/10 13:34:36;;;;;;;292.73;276.67;;;;;;;37.43;34.07;98656.50;5066550;27;104318;-73
2023/09/10 13:37:04;;;;;;;307.02;289.20;;;;;;;37.92;32.13;98654.50;5076924;27;103526;-71
2023/09/10 13:39:34;;;;;;;320.42;302.38;;;;;;;38.13;32.55;98649.63;5074995;27;102666;-74
2023/09/10 13:42:02;;;;;;;294.77;277.75;;;;;;;38.45;33.91;98643.53;5077737;27;102649;-74
2023/09/10 13:44:31;;;;;;;365.15;342.95;;;;;;;39.55;31.41;98646.00;5065115;27;104240;-74
2023/09/10 13:46:59;;;;;;;341.13;321.17;;;;;;;37.67;32.28;98638.16;5073551;27;103118;-73
2023/09/10 13:49:27;;;;;;;310.40;292.10;;;;;;;37.12;33.38;98637.38;5066395;27;103144;-74
2023/09/10 13:51:55;;;;;;;318.77;300.27;;;;;;;38.46;31.91;98637.72;5069637;27;104424;-73
2023/09/10 13:54:22;;;;;;;270.83;255.15;;;;;;;36.20;35.08;98642.59;5077601;27;103163;-73
2023/09/10 13:56:52;;;;;;;264.70;250.15;;;;;;;36.77;34.68;98637.53;5070686;27;103328;-73
2023/09/10 13:59:19;;;;;;;269.00;254.13;;;;;;;37.09;34.27;98635.19;5064515;27;102778;-74
2023/09/10 14:01:47;;;;;;;294.10;277.20;;;;;;;38.10;32.97;98628.97;5072903;27;102958;-74
2023/09/10 14:04:16;;;;;;;275.30;259.85;;;;;;;37.14;34.37;98642.59;5065872;27;103397;-74
2023/09/10 14:06:44;;;;;;;270.15;255.18;;;;;;;37.03;33.50;98636.31;5068588;27;103271;-74
2023/09/10 14:09:12;;;;;;;257.17;242.90;;;;;;;37.18;33.65;98627.16;5069777;27;103078;-73
2023/09/10 14:11:40;;;;;;;243.55;229.95;;;;;;;36.43;33.37;98633.75;5069835;27;103975;-75
2023/09/10 14:14:09;;;;;;;241.48;229.05;;;;;;;36.96;33.68;98635.81;5068360;27;103885;-74
2023/09/10 14:16:37;;;;;;;225.27;213.50;;;;;;;36.68;34.64;98630.97;5067973;27;103215;-74
2023/09/10 14:19:05;;;;;;;255.25;241.23;;;;;;;36.49;33.88;98629.91;5071397;27;102581;-74
2023/09/10 14:21:34;;;;;;;237.38;224.85;;;;;;;36.99;34.00;98629.75;5066135;27;103104;-74
2023/09/10 14:24:02;;;;;;;242.55;229.52;;;;;;;37.06;33.20;98633.00;5067384;27;103318;-74
2023/09/10 14:26:30;;;;;;;239.13;226.57;;;;;;;36.83;34.06;98630.88;5070780;27;103375;-74
2023/09/10 14:28:58;;;;;;;269.20;253.88;;;;;;;38.47;32.80;98617.28;5078635;27;102793;-74
2023/09/10 14:31:28;;;;;;;265.63;251.20;;;;;;;36.70;33.21;98631.50;5066057;27;103914;-76
2023/09/10 14:33:56;;;;;;;231.48;219.13;;;;;;;36.94;34.91;98626.97;5069286;27;103325;-77
2023/09/10 14:36:24;;;;;;;257.90;244.10;;;;;;;37.87;33.11;98626.13;5063979;27;103398;-75
2023/09/10 14:38:51;;;;;;;269.15;254.30;;;;;;;37.46;33.26;98625.63;5063672;27;102668;-77
2023/09/10 14:41:20;;;;;;;280.75;265.27;;;;;;;38.55;31.83;98618.56;5068145;27;103138;-79
2023/09/10 14:43:48;;;;;;;255.57;241.80;;;;;;;36.87;33.54;98628.38;5070462;27;103370;-78
2023/09/10 14:46:16;;;;;;;232.65;220.02;;;;;;;36.27;33.87;98616.47;5068917;27;103081;-75
2023/09/10 14:48:46;;;;;;;265.60;251.00;;;;;;;37.95;32.99;98609.84;5076123;27;102884;-73
2023/09/10 14:51:14;;;;;;;246.88;233.57;;;;;;;37.12;33.72;98617.28;5070097;27;103034;-73
2023/09/10 14:53:44;;;;;;;249.43;235.60;;;;;;;36.01;33.93;98617.59;5066907;27;103246;-73
2023/09/10 14:56:12;;;;;;;234.50;221.75;;;;;;;36.82;33.15;98612.75;5069020;27;102936;-76
2023/09/10 14:58:40;;;;;;;221.38;210.20;;;;;;;36.78;33.45;98608.06;5076232;27;102797;-74
2023/09/10 15:01:08;;;;;;;267.85;253.10;;;;;;;38.06;31.99;98611.38;5074535;27;104211;-76
2023/09/10 15:03:36;;;;;;;244.55;231.30;;;;;;;37.36;33.40;98607.22;5070847;27;104126;-74
2023/09/10 15:06:06;;;;;;;287.15;271.35;;;;;;;38.57;32.10;98594.28;5075408;27;103222;-74
2023/09/10 15:08:34;;;;;;;276.45;261.02;;;;;;;38.13;31.73;98598.06;5076249;27;102725;-73
2023/09/10 15:11:02;;;;;;;249.02;235.98;;;;;;;36.26;34.55;98603.84;5068367;27;103622;-76
2023/09/10 15:13:32;;;;;;;216.77;205.32;;;;;;;36.44;34.11;98594.97;5065357;27;103263;-74
2023/09/10 15:16:02;;;;;;;204.23;193.43;;;;;;;36.44;34.24;98594.97;5063628;27;104239;-77
2023/09/10 15:18:30;;;;;;;208.57;197.85;;;;;;;36.18;34.92;98595.31;5067321;27;103168;-76
2023/09/10 15:21:01;;;;;;;230.30;218.45;;;;;;;36.81;34.19;98589.06;5074416;27;102645;-75
2023/09/10 15:23:32;;;;;;;240.05;227.80;;;;;;;37.40;33.89;98596.44;5067988;27;103632;-73
2023/09/10 15:26:00;;;;;;;248.75;235.32;;;;;;;37.85;32.64;98587.81;5058145;27;104078;-73
2023/09/10 15:28:28;;;;;;;232.00;220.60;;;;;;;35.67;35.50;98594.53;5074165;27;102661;-75
2023/09/10 15:30:57;;;;;;;232.95;221.35;;;;;;;36.27;35.09;98588.16;5070856;27;103017;-75
2023/09/10 15:33:24;;;;;;;251.20;238.57;;;;;;;36.69;34.28;98580.31;5061890;27;104556;-73
2023/09/10 15:35:52;;;;;;;251.23;238.23;;;;;;;37.47;33.10;98588.72;5061845;27;104223;-74
2023/09/10 15:38:20;;;;;;;234.15;222.13;;;;;;;36.62;35.40;98579.81;5066940;27;102667;-74
2023/09/10 15:40:54;;;;;;;218.75;207.73;;;;;;;35.25;36.53;98586.50;5071882;27;103006;-72
2023/09/10 15:43:22;;;;;;;227.25;215.57;;;;;;;35.54;35.24;98582.13;5070450;27;103342;-73
2023/09/10 15:45:53;;;;;;;227.40;216.25;;;;;;;35.61;35.75;98579.97;5073439;27;103036;-76
2023/09/10 15:48:21;;;;;;;214.35;203.35;;;;;;;35.06;36.00;98571.63;5070360;27;102671;-76
2023/09/10 15:50:50;;;;;;;217.88;207.57;;;;;;;35.06;37.01;98571.63;5062188;27;103464;-73
2023/09/10 15:53:18;;;;;;;195.65;186.73;;;;;;;34.95;36.51;98571.59;5068736;27;103335;-73
2023/09/10 15:55:46;;;;;;;209.90;199.82;;;;;;;35.28;36.18;98575.00;5073452;27;102696;-75
2023/09/10 15:58:15;;;;;;;219.45;209.25;;;;;;;35.84;36.17;98579.41;5068200;27;103531;-77
2023/09/10 16:00:44;;;;;;;240.05;229.38;;;;;;;36.21;37.07;98583.78;5079828;27;103232;-75
2023/09/10 16:03:12;;;;;;;277.83;263.95;;;;;;;36.31;35.76;98576.31;5068906;27;103282;-75
2023/09/10 16:05:41;;;;;;;257.60;245.70;;;;;;;35.64;36.14;98576.69;5065771;27;104309;-75
2023/09/10 16:08:10;;;;;;;256.08;243.75;;;;;;;36.56;34.64;98573.50;5076360;27;102650;-76
2023/09/10 16:10:38;;;;;;;256.08;243.30;;;;;;;36.51;34.51;98572.69;5067890;27;102761;-76
2023/09/10 16:13:06;;;;;;;240.70;229.88;;;;;;;35.92;35.50;98578.03;5072647;27;103259;-82
2023/09/10 16:15:35;;;;;;;234.32;222.63;;;;;;;35.30;36.37;98572.78;5072102;27;103271;-73
2023/09/10 16:18:06;;;;;;;234.63;223.43;;;;;;;35.89;35.58;98575.81;5071454;27;102806;-73
2023/09/10 16:20:34;;;;;;;228.57;218.15;;;;;;;35.44;36.60;98579.38;5065418;27;104012;-74
2023/09/10 16:23:02;;;;;;;208.55;199.50;;;;;;;35.03;37.07;98574.91;5064159;27;104179;-69
2023/09/10 16:25:30;;;;;;;220.32;210.63;;;;;;;35.39;37.21;98576.66;5072504;27;103353;-71
2023/09/10 16:27:58;;;;;;;219.88;210.10;;;;;;;34.69;37.90;98574.56;5070808;27;102934;-71
2023/09/10 16:30:28;;;;;;;235.55;224.90;;;;;;;35.42;36.80;98581.59;5071295;27;103743;-71
2023/09/10 16:32:57;;;;;;;207.43;198.23;;;;;;;35.11;36.46;98582.66;5073514;27;103310;-72
2023/09/10 16:35:27;;;;;;;209.43;200.43;;;;;;;34.88;38.07;98579.28;5070528;27;103262;-71